sensor_id;sensor_type;location;lat;lon;timestamp;P1;durP1;ratioP1;P2;durP2;ratioP2
34928;SDS011;21133;48.048;7.724;2023-03-04T00:01:40;27.27;;;15.67;;
34928;SDS011;21133;48.048;7.724;2023-03-04T00:04:06;42.07;;;21.67;;
34928;SDS011;21133;48.048;7.724;2023-03-04T00:06:31;31.50;;;18.00;;
34928;SDS011;21133;48.048;7.724;2023-03-04T00:08:57;30.57;;;19.47;;
34928;SDS011;21133;48.048;7.724;2023-03-04T00:11:24;28.53;;;17.33;;
34928;SDS011;21133;48.048;7.724;2023-03-04T00:13:50;33.83;;;19.07;;
34928;SDS011;21133;48.048;7.724;2023-03-04T00:16:16;31.40;;;19.67;;
34928;SDS011;21133;48.048;7.724;2023-03-04T00:18:42;38.73;;;18.30;;
34928;SDS011;21133;48.048;7.724;2023-03-04T00:21:08;35.27;;;18.90;;
34928;SDS011;21133;48.048;7.724;2023-03-04T00:23:33;32.73;;;17.80;;
34928;SDS011;21133;48.048;7.724;2023-03-04T00:25:59;30.37;;;16.57;;
34928;SDS011;21133;48.048;7.724;2023-03-04T00:28:25;28.50;;;17.10;;
34928;SDS011;21133;48.048;7.724;2023-03-04T00:30:52;30.40;;;17.10;;
34928;SDS011;21133;48.048;7.724;2023-03-04T00:33:18;22.90;;;15.47;;
34928;SDS011;21133;48.048;7.724;2023-03-04T00:35:44;39.23;;;19.10;;
34928;SDS011;21133;48.048;7.724;2023-03-04T00:38:10;34.87;;;16.87;;
34928;SDS011;21133;48.048;7.724;2023-03-04T00:40:36;34.73;;;19.03;;
34928;SDS011;21133;48.048;7.724;2023-03-04T00:43:02;31.37;;;18.50;;
34928;SDS011;21133;48.048;7.724;2023-03-04T00:45:28;36.13;;;18.53;;
34928;SDS011;21133;48.048;7.724;2023-03-04T00:47:53;34.67;;;19.00;;
34928;SDS011;21133;48.048;7.724;2023-03-04T00:50:19;33.20;;;18.67;;
34928;SDS011;21133;48.048;7.724;2023-03-04T00:52:45;36.10;;;16.53;;
34928;SDS011;21133;48.048;7.724;2023-03-04T00:55:11;25.47;;;17.27;;
34928;SDS011;21133;48.048;7.724;2023-03-04T00:57:37;34.13;;;17.43;;
34928;SDS011;21133;48.048;7.724;2023-03-04T01:00:04;33.87;;;19.10;;
34928;SDS011;21133;48.048;7.724;2023-03-04T01:02:30;26.63;;;16.10;;
34928;SDS011;21133;48.048;7.724;2023-03-04T01:04:55;33.07;;;20.03;;
34928;SDS011;21133;48.048;7.724;2023-03-04T01:07:21;32.70;;;18.00;;
34928;SDS011;21133;48.048;7.724;2023-03-04T01:09:47;33.43;;;19.63;;
34928;SDS011;21133;48.048;7.724;2023-03-04T01:12:13;37.70;;;20.13;;
34928;SDS011;21133;48.048;7.724;2023-03-04T01:14:39;37.43;;;21.67;;
34928;SDS011;21133;48.048;7.724;2023-03-04T01:17:05;36.13;;;19.73;;
34928;SDS011;21133;48.048;7.724;2023-03-04T01:19:31;33.00;;;20.00;;
34928;SDS011;21133;48.048;7.724;2023-03-04T01:21:57;34.00;;;19.30;;
34928;SDS011;21133;48.048;7.724;2023-03-04T01:24:23;43.10;;;23.57;;
34928;SDS011;21133;48.048;7.724;2023-03-04T01:26:49;31.53;;;18.67;;
34928;SDS011;21133;48.048;7.724;2023-03-04T01:29:16;32.67;;;19.60;;
34928;SDS011;21133;48.048;7.724;2023-03-04T01:31:42;30.50;;;16.80;;
34928;SDS011;21133;48.048;7.724;2023-03-04T01:34:08;33.23;;;18.40;;
34928;SDS011;21133;48.048;7.724;2023-03-04T01:36:34;33.63;;;19.60;;
34928;SDS011;21133;48.048;7.724;2023-03-04T01:39:00;39.40;;;19.93;;
34928;SDS011;21133;48.048;7.724;2023-03-04T01:41:26;34.70;;;20.13;;
34928;SDS011;21133;48.048;7.724;2023-03-04T01:43:56;31.73;;;20.80;;
34928;SDS011;21133;48.048;7.724;2023-03-04T01:46:24;32.20;;;20.00;;
34928;SDS011;21133;48.048;7.724;2023-03-04T01:48:50;31.57;;;18.13;;
34928;SDS011;21133;48.048;7.724;2023-03-04T01:51:17;34.83;;;19.43;;
34928;SDS011;21133;48.048;7.724;2023-03-04T01:53:43;31.53;;;19.37;;
34928;SDS011;21133;48.048;7.724;2023-03-04T01:56:12;33.67;;;19.30;;
34928;SDS011;21133;48.048;7.724;2023-03-04T01:58:39;45.23;;;18.53;;
34928;SDS011;21133;48.048;7.724;2023-03-04T02:01:05;28.80;;;17.67;;
34928;SDS011;21133;48.048;7.724;2023-03-04T02:03:31;31.80;;;18.70;;
34928;SDS011;21133;48.048;7.724;2023-03-04T02:05:57;29.90;;;18.00;;
34928;SDS011;21133;48.048;7.724;2023-03-04T02:08:23;32.07;;;17.90;;
34928;SDS011;21133;48.048;7.724;2023-03-04T02:10:49;28.57;;;18.23;;
34928;SDS011;21133;48.048;7.724;2023-03-04T02:13:16;30.77;;;16.80;;
34928;SDS011;21133;48.048;7.724;2023-03-04T02:15:43;30.40;;;17.37;;
34928;SDS011;21133;48.048;7.724;2023-03-04T02:18:14;40.17;;;18.53;;
34928;SDS011;21133;48.048;7.724;2023-03-04T02:20:44;26.93;;;17.17;;
34928;SDS011;21133;48.048;7.724;2023-03-04T02:23:21;29.17;;;17.83;;
34928;SDS011;21133;48.048;7.724;2023-03-04T02:25:50;28.73;;;18.33;;
34928;SDS011;21133;48.048;7.724;2023-03-04T02:28:17;32.37;;;17.63;;
34928;SDS011;21133;48.048;7.724;2023-03-04T02:30:43;33.60;;;17.87;;
34928;SDS011;21133;48.048;7.724;2023-03-04T02:33:12;34.63;;;19.17;;
34928;SDS011;21133;48.048;7.724;2023-03-04T02:35:39;28.10;;;17.97;;
34928;SDS011;21133;48.048;7.724;2023-03-04T02:38:05;27.37;;;17.10;;
34928;SDS011;21133;48.048;7.724;2023-03-04T02:40:31;30.67;;;18.17;;
34928;SDS011;21133;48.048;7.724;2023-03-04T02:42:58;31.13;;;18.63;;
34928;SDS011;21133;48.048;7.724;2023-03-04T02:47:57;39.20;;;19.20;;
34928;SDS011;21133;48.048;7.724;2023-03-04T02:50:23;37.87;;;19.60;;
34928;SDS011;21133;48.048;7.724;2023-03-04T02:52:50;26.17;;;17.57;;
34928;SDS011;21133;48.048;7.724;2023-03-04T02:55:16;32.33;;;17.70;;
34928;SDS011;21133;48.048;7.724;2023-03-04T02:57:42;34.63;;;18.20;;
34928;SDS011;21133;48.048;7.724;2023-03-04T03:00:08;32.57;;;16.30;;
34928;SDS011;21133;48.048;7.724;2023-03-04T03:02:34;36.30;;;19.07;;
34928;SDS011;21133;48.048;7.724;2023-03-04T03:05:00;30.60;;;17.53;;
34928;SDS011;21133;48.048;7.724;2023-03-04T03:07:26;30.50;;;19.13;;
34928;SDS011;21133;48.048;7.724;2023-03-04T03:09:52;30.93;;;17.70;;
34928;SDS011;21133;48.048;7.724;2023-03-04T03:12:18;30.70;;;18.83;;
34928;SDS011;21133;48.048;7.724;2023-03-04T03:14:44;35.57;;;18.80;;
34928;SDS011;21133;48.048;7.724;2023-03-04T03:17:10;26.97;;;17.40;;
34928;SDS011;21133;48.048;7.724;2023-03-04T03:19:36;27.70;;;17.77;;
34928;SDS011;21133;48.048;7.724;2023-03-04T03:22:02;30.60;;;18.97;;
34928;SDS011;21133;48.048;7.724;2023-03-04T03:24:28;29.70;;;17.00;;
34928;SDS011;21133;48.048;7.724;2023-03-04T03:26:54;26.70;;;17.37;;
34928;SDS011;21133;48.048;7.724;2023-03-04T03:29:20;35.73;;;17.20;;
34928;SDS011;21133;48.048;7.724;2023-03-04T03:31:46;33.20;;;17.07;;
34928;SDS011;21133;48.048;7.724;2023-03-04T03:34:12;29.80;;;16.90;;
34928;SDS011;21133;48.048;7.724;2023-03-04T03:36:38;30.63;;;17.33;;
34928;SDS011;21133;48.048;7.724;2023-03-04T03:39:04;29.37;;;15.57;;
34928;SDS011;21133;48.048;7.724;2023-03-04T03:41:29;21.73;;;14.27;;
34928;SDS011;21133;48.048;7.724;2023-03-04T03:43:55;31.07;;;16.17;;
34928;SDS011;21133;48.048;7.724;2023-03-04T03:46:23;26.63;;;16.00;;
34928;SDS011;21133;48.048;7.724;2023-03-04T03:48:49;27.77;;;16.50;;
34928;SDS011;21133;48.048;7.724;2023-03-04T03:51:15;24.70;;;15.00;;
34928;SDS011;21133;48.048;7.724;2023-03-04T03:53:41;30.33;;;16.97;;
34928;SDS011;21133;48.048;7.724;2023-03-04T03:56:06;28.07;;;17.33;;
34928;SDS011;21133;48.048;7.724;2023-03-04T03:58:32;26.37;;;16.10;;
34928;SDS011;21133;48.048;7.724;2023-03-04T04:00:58;29.10;;;16.07;;
34928;SDS011;21133;48.048;7.724;2023-03-04T04:03:24;26.30;;;17.20;;
34928;SDS011;21133;48.048;7.724;2023-03-04T04:05:50;31.00;;;17.10;;
34928;SDS011;21133;48.048;7.724;2023-03-04T04:08:16;27.10;;;16.50;;
34928;SDS011;21133;48.048;7.724;2023-03-04T04:10:43;25.00;;;16.40;;
34928;SDS011;21133;48.048;7.724;2023-03-04T04:13:09;18.73;;;13.93;;
34928;SDS011;21133;48.048;7.724;2023-03-04T04:15:35;23.10;;;14.30;;
34928;SDS011;21133;48.048;7.724;2023-03-04T04:18:02;23.07;;;14.20;;
34928;SDS011;21133;48.048;7.724;2023-03-04T04:20:28;20.43;;;13.47;;
34928;SDS011;21133;48.048;7.724;2023-03-04T04:22:54;23.87;;;14.60;;
34928;SDS011;21133;48.048;7.724;2023-03-04T04:25:20;22.17;;;13.90;;
34928;SDS011;21133;48.048;7.724;2023-03-04T04:27:46;19.13;;;13.03;;
34928;SDS011;21133;48.048;7.724;2023-03-04T04:30:12;21.23;;;13.47;;
34928;SDS011;21133;48.048;7.724;2023-03-04T04:32:38;24.20;;;12.60;;
34928;SDS011;21133;48.048;7.724;2023-03-04T04:35:04;22.63;;;12.83;;
34928;SDS011;21133;48.048;7.724;2023-03-04T04:37:32;26.60;;;12.70;;
34928;SDS011;21133;48.048;7.724;2023-03-04T04:39:58;21.30;;;13.03;;
34928;SDS011;21133;48.048;7.724;2023-03-04T04:42:24;19.30;;;12.30;;
34928;SDS011;21133;48.048;7.724;2023-03-04T04:44:50;24.83;;;14.13;;
34928;SDS011;21133;48.048;7.724;2023-03-04T04:47:16;28.97;;;16.97;;
34928;SDS011;21133;48.048;7.724;2023-03-04T04:49:42;36.87;;;19.30;;
34928;SDS011;21133;48.048;7.724;2023-03-04T04:52:08;36.03;;;18.57;;
34928;SDS011;21133;48.048;7.724;2023-03-04T04:54:34;32.67;;;16.60;;
34928;SDS011;21133;48.048;7.724;2023-03-04T04:57:00;23.53;;;15.23;;
34928;SDS011;21133;48.048;7.724;2023-03-04T04:59:26;20.80;;;14.60;;
34928;SDS011;21133;48.048;7.724;2023-03-04T05:01:52;21.93;;;14.07;;
34928;SDS011;21133;48.048;7.724;2023-03-04T05:04:18;21.50;;;13.47;;
34928;SDS011;21133;48.048;7.724;2023-03-04T05:06:44;22.77;;;13.73;;
34928;SDS011;21133;48.048;7.724;2023-03-04T05:09:11;20.97;;;13.73;;
34928;SDS011;21133;48.048;7.724;2023-03-04T05:11:37;21.50;;;13.37;;
34928;SDS011;21133;48.048;7.724;2023-03-04T05:14:03;23.57;;;12.90;;
34928;SDS011;21133;48.048;7.724;2023-03-04T05:16:29;20.57;;;13.30;;
34928;SDS011;21133;48.048;7.724;2023-03-04T05:18:55;21.90;;;12.80;;
34928;SDS011;21133;48.048;7.724;2023-03-04T05:21:21;16.33;;;12.47;;
34928;SDS011;21133;48.048;7.724;2023-03-04T05:23:47;23.37;;;13.70;;
34928;SDS011;21133;48.048;7.724;2023-03-04T05:26:13;22.70;;;14.00;;
34928;SDS011;21133;48.048;7.724;2023-03-04T05:28:40;22.60;;;13.60;;
34928;SDS011;21133;48.048;7.724;2023-03-04T05:31:06;23.60;;;13.00;;
34928;SDS011;21133;48.048;7.724;2023-03-04T05:33:32;21.00;;;14.90;;
34928;SDS011;21133;48.048;7.724;2023-03-04T05:35:58;21.03;;;13.30;;
34928;SDS011;21133;48.048;7.724;2023-03-04T05:38:24;23.60;;;13.90;;
34928;SDS011;21133;48.048;7.724;2023-03-04T05:40:55;18.80;;;13.23;;
34928;SDS011;21133;48.048;7.724;2023-03-04T05:43:22;28.47;;;14.80;;
34928;SDS011;21133;48.048;7.724;2023-03-04T05:45:48;21.67;;;13.80;;
34928;SDS011;21133;48.048;7.724;2023-03-04T05:48:14;24.00;;;13.37;;
34928;SDS011;21133;48.048;7.724;2023-03-04T05:50:40;24.93;;;15.10;;
34928;SDS011;21133;48.048;7.724;2023-03-04T05:53:06;21.33;;;13.50;;
34928;SDS011;21133;48.048;7.724;2023-03-04T05:55:32;24.00;;;14.73;;
34928;SDS011;21133;48.048;7.724;2023-03-04T05:57:58;21.03;;;13.73;;
34928;SDS011;21133;48.048;7.724;2023-03-04T06:00:24;23.10;;;14.23;;
34928;SDS011;21133;48.048;7.724;2023-03-04T06:02:50;24.47;;;15.23;;
34928;SDS011;21133;48.048;7.724;2023-03-04T06:05:16;28.13;;;14.30;;
34928;SDS011;21133;48.048;7.724;2023-03-04T06:07:43;21.00;;;14.20;;
34928;SDS011;21133;48.048;7.724;2023-03-04T06:10:10;26.57;;;14.93;;
34928;SDS011;21133;48.048;7.724;2023-03-04T06:12:37;22.90;;;12.40;;
34928;SDS011;21133;48.048;7.724;2023-03-04T06:15:03;29.10;;;15.67;;
34928;SDS011;21133;48.048;7.724;2023-03-04T06:17:30;32.53;;;15.37;;
34928;SDS011;21133;48.048;7.724;2023-03-04T06:19:56;26.40;;;15.10;;
34928;SDS011;21133;48.048;7.724;2023-03-04T06:22:22;25.87;;;14.93;;
34928;SDS011;21133;48.048;7.724;2023-03-04T06:24:48;24.30;;;14.47;;
34928;SDS011;21133;48.048;7.724;2023-03-04T06:27:14;21.67;;;14.00;;
34928;SDS011;21133;48.048;7.724;2023-03-04T06:29:40;32.17;;;14.57;;
34928;SDS011;21133;48.048;7.724;2023-03-04T06:32:06;25.00;;;14.50;;
34928;SDS011;21133;48.048;7.724;2023-03-04T06:34:32;32.90;;;15.63;;
34928;SDS011;21133;48.048;7.724;2023-03-04T06:36:58;21.73;;;14.60;;
34928;SDS011;21133;48.048;7.724;2023-03-04T06:39:24;25.63;;;14.83;;
34928;SDS011;21133;48.048;7.724;2023-03-04T06:41:50;27.47;;;15.60;;
34928;SDS011;21133;48.048;7.724;2023-03-04T06:44:16;28.67;;;16.37;;
34928;SDS011;21133;48.048;7.724;2023-03-04T06:46:42;25.00;;;14.50;;
34928;SDS011;21133;48.048;7.724;2023-03-04T06:49:08;31.90;;;17.70;;
34928;SDS011;21133;48.048;7.724;2023-03-04T06:51:34;20.90;;;14.20;;
34928;SDS011;21133;48.048;7.724;2023-03-04T06:54:00;26.17;;;15.90;;
34928;SDS011;21133;48.048;7.724;2023-03-04T06:56:26;28.37;;;14.90;;
34928;SDS011;21133;48.048;7.724;2023-03-04T06:58:52;29.83;;;16.80;;
34928;SDS011;21133;48.048;7.724;2023-03-04T07:01:19;35.37;;;17.80;;
34928;SDS011;21133;48.048;7.724;2023-03-04T07:03:46;36.23;;;19.13;;
34928;SDS011;21133;48.048;7.724;2023-03-04T07:06:13;29.70;;;17.47;;
34928;SDS011;21133;48.048;7.724;2023-03-04T07:08:40;36.73;;;20.13;;
34928;SDS011;21133;48.048;7.724;2023-03-04T07:11:06;40.73;;;19.60;;
34928;SDS011;21133;48.048;7.724;2023-03-04T07:13:32;32.43;;;19.10;;
34928;SDS011;21133;48.048;7.724;2023-03-04T07:16:02;28.90;;;17.23;;
34928;SDS011;21133;48.048;7.724;2023-03-04T07:18:28;37.00;;;19.20;;
34928;SDS011;21133;48.048;7.724;2023-03-04T07:20:54;30.77;;;17.80;;
34928;SDS011;21133;48.048;7.724;2023-03-04T07:23:20;33.73;;;19.47;;
34928;SDS011;21133;48.048;7.724;2023-03-04T07:25:47;31.30;;;18.87;;
34928;SDS011;21133;48.048;7.724;2023-03-04T07:28:13;31.03;;;18.57;;
34928;SDS011;21133;48.048;7.724;2023-03-04T07:30:39;35.47;;;20.43;;
34928;SDS011;21133;48.048;7.724;2023-03-04T07:33:05;41.77;;;21.00;;
34928;SDS011;21133;48.048;7.724;2023-03-04T07:35:31;37.30;;;21.90;;
34928;SDS011;21133;48.048;7.724;2023-03-04T07:37:57;38.10;;;20.80;;
34928;SDS011;21133;48.048;7.724;2023-03-04T07:40:23;40.20;;;22.30;;
34928;SDS011;21133;48.048;7.724;2023-03-04T07:42:49;39.67;;;21.10;;
34928;SDS011;21133;48.048;7.724;2023-03-04T07:45:15;52.83;;;22.30;;
34928;SDS011;21133;48.048;7.724;2023-03-04T07:47:41;47.67;;;21.70;;
34928;SDS011;21133;48.048;7.724;2023-03-04T07:50:08;44.13;;;19.57;;
34928;SDS011;21133;48.048;7.724;2023-03-04T07:52:38;42.50;;;22.10;;
34928;SDS011;21133;48.048;7.724;2023-03-04T07:55:04;46.37;;;24.10;;
34928;SDS011;21133;48.048;7.724;2023-03-04T07:57:30;44.10;;;23.87;;
34928;SDS011;21133;48.048;7.724;2023-03-04T07:59:56;44.37;;;22.93;;
34928;SDS011;21133;48.048;7.724;2023-03-04T08:02:22;47.23;;;25.10;;
34928;SDS011;21133;48.048;7.724;2023-03-04T08:04:48;52.10;;;25.33;;
34928;SDS011;21133;48.048;7.724;2023-03-04T08:07:14;45.07;;;24.27;;
34928;SDS011;21133;48.048;7.724;2023-03-04T08:09:40;47.50;;;25.27;;
34928;SDS011;21133;48.048;7.724;2023-03-04T08:12:06;43.73;;;22.07;;
34928;SDS011;21133;48.048;7.724;2023-03-04T08:14:32;50.83;;;24.27;;
34928;SDS011;21133;48.048;7.724;2023-03-04T08:16:58;49.57;;;24.33;;
34928;SDS011;21133;48.048;7.724;2023-03-04T08:19:24;59.43;;;30.07;;
34928;SDS011;21133;48.048;7.724;2023-03-04T08:21:50;62.20;;;30.30;;
34928;SDS011;21133;48.048;7.724;2023-03-04T08:24:16;59.13;;;27.77;;
34928;SDS011;21133;48.048;7.724;2023-03-04T08:26:44;48.30;;;25.80;;
34928;SDS011;21133;48.048;7.724;2023-03-04T08:29:12;45.20;;;25.70;;
34928;SDS011;21133;48.048;7.724;2023-03-04T08:31:38;45.00;;;23.77;;
34928;SDS011;21133;48.048;7.724;2023-03-04T08:34:04;48.60;;;25.70;;
34928;SDS011;21133;48.048;7.724;2023-03-04T08:36:32;49.07;;;23.73;;
34928;SDS011;21133;48.048;7.724;2023-03-04T08:38:58;45.67;;;22.90;;
34928;SDS011;21133;48.048;7.724;2023-03-04T08:41:24;45.63;;;23.53;;
34928;SDS011;21133;48.048;7.724;2023-03-04T08:43:51;46.90;;;24.43;;
34928;SDS011;21133;48.048;7.724;2023-03-04T08:46:17;44.13;;;24.30;;
34928;SDS011;21133;48.048;7.724;2023-03-04T08:48:43;39.23;;;18.30;;
34928;SDS011;21133;48.048;7.724;2023-03-04T08:51:10;43.53;;;24.93;;
34928;SDS011;21133;48.048;7.724;2023-03-04T08:53:37;45.70;;;24.20;;
34928;SDS011;21133;48.048;7.724;2023-03-04T08:56:04;47.57;;;24.00;;
34928;SDS011;21133;48.048;7.724;2023-03-04T08:58:30;47.40;;;23.00;;
34928;SDS011;21133;48.048;7.724;2023-03-04T09:00:57;42.30;;;22.80;;
34928;SDS011;21133;48.048;7.724;2023-03-04T09:03:23;47.40;;;22.87;;
34928;SDS011;21133;48.048;7.724;2023-03-04T09:05:49;55.70;;;25.53;;
34928;SDS011;21133;48.048;7.724;2023-03-04T09:08:15;45.87;;;23.50;;
34928;SDS011;21133;48.048;7.724;2023-03-04T09:10:42;52.23;;;25.67;;
34928;SDS011;21133;48.048;7.724;2023-03-04T09:13:09;52.90;;;25.40;;
34928;SDS011;21133;48.048;7.724;2023-03-04T09:15:35;45.90;;;22.63;;
34928;SDS011;21133;48.048;7.724;2023-03-04T09:18:02;47.13;;;25.70;;
34928;SDS011;21133;48.048;7.724;2023-03-04T09:20:29;54.27;;;26.40;;
34928;SDS011;21133;48.048;7.724;2023-03-04T09:22:55;54.67;;;25.20;;
34928;SDS011;21133;48.048;7.724;2023-03-04T09:25:21;48.97;;;24.50;;
34928;SDS011;21133;48.048;7.724;2023-03-04T09:27:47;55.53;;;31.67;;
34928;SDS011;21133;48.048;7.724;2023-03-04T09:30:13;45.87;;;23.77;;
34928;SDS011;21133;48.048;7.724;2023-03-04T09:32:39;51.43;;;26.17;;
34928;SDS011;21133;48.048;7.724;2023-03-04T09:35:05;45.27;;;26.27;;
34928;SDS011;21133;48.048;7.724;2023-03-04T09:37:31;44.57;;;24.17;;
34928;SDS011;21133;48.048;7.724;2023-03-04T09:39:57;46.33;;;25.53;;
34928;SDS011;21133;48.048;7.724;2023-03-04T09:42:34;53.77;;;26.53;;
34928;SDS011;21133;48.048;7.724;2023-03-04T09:45:02;45.90;;;24.53;;
34928;SDS011;21133;48.048;7.724;2023-03-04T09:47:30;55.63;;;28.95;;
34928;SDS011;21133;48.048;7.724;2023-03-04T09:49:59;45.13;;;22.73;;
34928;SDS011;21133;48.048;7.724;2023-03-04T09:55:05;48.67;;;24.70;;
34928;SDS011;21133;48.048;7.724;2023-03-04T10:00:25;50.30;;;24.47;;
34928;SDS011;21133;48.048;7.724;2023-03-04T10:10:46;40.50;;;20.50;;
34928;SDS011;21133;48.048;7.724;2023-03-04T10:13:15;35.70;;;20.27;;
34928;SDS011;21133;48.048;7.724;2023-03-04T10:15:44;43.30;;;22.00;;
34928;SDS011;21133;48.048;7.724;2023-03-04T10:18:13;43.03;;;23.73;;
34928;SDS011;21133;48.048;7.724;2023-03-04T10:20:46;46.20;;;22.97;;
34928;SDS011;21133;48.048;7.724;2023-03-04T10:23:16;30.60;;;17.60;;
34928;SDS011;21133;48.048;7.724;2023-03-04T10:25:43;37.47;;;20.10;;
34928;SDS011;21133;48.048;7.724;2023-03-04T10:33:22;45.40;;;21.60;;
34928;SDS011;21133;48.048;7.724;2023-03-04T10:35:51;34.30;;;18.60;;
34928;SDS011;21133;48.048;7.724;2023-03-04T10:38:18;35.50;;;19.90;;
34928;SDS011;21133;48.048;7.724;2023-03-04T10:40:45;33.20;;;20.27;;
34928;SDS011;21133;48.048;7.724;2023-03-04T10:43:14;40.30;;;20.27;;
34928;SDS011;21133;48.048;7.724;2023-03-04T10:45:40;40.90;;;24.25;;
34928;SDS011;21133;48.048;7.724;2023-03-04T10:48:08;42.83;;;22.93;;
34928;SDS011;21133;48.048;7.724;2023-03-04T10:50:42;46.00;;;22.87;;
34928;SDS011;21133;48.048;7.724;2023-03-04T10:53:10;45.50;;;23.47;;
34928;SDS011;21133;48.048;7.724;2023-03-04T10:55:47;40.23;;;21.90;;
34928;SDS011;21133;48.048;7.724;2023-03-04T10:58:14;31.40;;;19.67;;
34928;SDS011;21133;48.048;7.724;2023-03-04T11:00:42;37.40;;;20.00;;
34928;SDS011;21133;48.048;7.724;2023-03-04T11:08:39;37.27;;;17.67;;
34928;SDS011;21133;48.048;7.724;2023-03-04T11:11:20;31.87;;;18.77;;
34928;SDS011;21133;48.048;7.724;2023-03-04T11:13:57;38.33;;;20.63;;
34928;SDS011;21133;48.048;7.724;2023-03-04T11:16:26;33.27;;;20.97;;
34928;SDS011;21133;48.048;7.724;2023-03-04T11:18:53;37.50;;;22.37;;
34928;SDS011;21133;48.048;7.724;2023-03-04T11:21:24;36.10;;;22.67;;
34928;SDS011;21133;48.048;7.724;2023-03-04T11:24:00;35.60;;;20.43;;
34928;SDS011;21133;48.048;7.724;2023-03-04T11:26:28;38.13;;;20.77;;
34928;SDS011;21133;48.048;7.724;2023-03-04T11:29:42;39.03;;;22.63;;
34928;SDS011;21133;48.048;7.724;2023-03-04T11:31:46;38.97;;;20.70;;
34928;SDS011;21133;48.048;7.724;2023-03-04T11:42:23;39.33;;;20.57;;
34928;SDS011;21133;48.048;7.724;2023-03-04T11:44:51;43.87;;;22.97;;
34928;SDS011;21133;48.048;7.724;2023-03-04T11:47:20;38.50;;;20.90;;
34928;SDS011;21133;48.048;7.724;2023-03-04T11:49:55;43.50;;;23.30;;
34928;SDS011;21133;48.048;7.724;2023-03-04T11:52:41;42.70;;;24.30;;
34928;SDS011;21133;48.048;7.724;2023-03-04T11:55:17;44.92;;;27.35;;
34928;SDS011;21133;48.048;7.724;2023-03-04T12:03:19;47.07;;;22.87;;
34928;SDS011;21133;48.048;7.724;2023-03-04T12:16:16;41.90;;;23.20;;
34928;SDS011;21133;48.048;7.724;2023-03-04T12:19:10;31.77;;;17.03;;
34928;SDS011;21133;48.048;7.724;2023-03-04T12:24:41;33.73;;;17.80;;
34928;SDS011;21133;48.048;7.724;2023-03-04T12:27:19;34.80;;;17.80;;
34928;SDS011;21133;48.048;7.724;2023-03-04T12:30:14;28.67;;;17.40;;
34928;SDS011;21133;48.048;7.724;2023-03-04T12:38:13;33.20;;;19.27;;
34928;SDS011;21133;48.048;7.724;2023-03-04T12:40:46;35.60;;;17.00;;
34928;SDS011;21133;48.048;7.724;2023-03-04T12:48:29;30.90;;;18.33;;
34928;SDS011;21133;48.048;7.724;2023-03-04T12:56:00;28.33;;;18.53;;
34928;SDS011;21133;48.048;7.724;2023-03-04T12:58:28;30.57;;;19.13;;
34928;SDS011;21133;48.048;7.724;2023-03-04T13:03:41;28.93;;;17.80;;
34928;SDS011;21133;48.048;7.724;2023-03-04T13:06:14;27.77;;;17.77;;
34928;SDS011;21133;48.048;7.724;2023-03-04T13:11:38;33.33;;;20.57;;
34928;SDS011;21133;48.048;7.724;2023-03-04T13:14:02;25.63;;;15.70;;
34928;SDS011;21133;48.048;7.724;2023-03-04T13:16:35;27.10;;;16.53;;
34928;SDS011;21133;48.048;7.724;2023-03-04T13:19:39;29.97;;;20.00;;
34928;SDS011;21133;48.048;7.724;2023-03-04T13:21:49;33.40;;;19.23;;
34928;SDS011;21133;48.048;7.724;2023-03-04T13:30:37;31.87;;;18.80;;
34928;SDS011;21133;48.048;7.724;2023-03-04T13:32:52;32.33;;;19.90;;
34928;SDS011;21133;48.048;7.724;2023-03-04T13:38:18;32.80;;;18.87;;
34928;SDS011;21133;48.048;7.724;2023-03-04T13:51:25;31.80;;;19.73;;
34928;SDS011;21133;48.048;7.724;2023-03-04T13:59:40;27.23;;;16.60;;
34928;SDS011;21133;48.048;7.724;2023-03-04T14:02:11;32.43;;;22.17;;
34928;SDS011;21133;48.048;7.724;2023-03-04T14:04:43;35.77;;;23.73;;
34928;SDS011;21133;48.048;7.724;2023-03-04T14:07:17;37.47;;;20.20;;
34928;SDS011;21133;48.048;7.724;2023-03-04T14:09:52;34.30;;;20.93;;
34928;SDS011;21133;48.048;7.724;2023-03-04T14:12:18;34.97;;;22.13;;
34928;SDS011;21133;48.048;7.724;2023-03-04T14:14:46;35.70;;;20.67;;
34928;SDS011;21133;48.048;7.724;2023-03-04T14:17:15;37.87;;;20.30;;
34928;SDS011;21133;48.048;7.724;2023-03-04T14:19:43;39.20;;;23.40;;
34928;SDS011;21133;48.048;7.724;2023-03-04T14:22:28;42.97;;;23.70;;
34928;SDS011;21133;48.048;7.724;2023-03-04T14:27:21;37.50;;;22.70;;
34928;SDS011;21133;48.048;7.724;2023-03-04T14:29:53;38.03;;;22.20;;
34928;SDS011;21133;48.048;7.724;2023-03-04T14:32:19;40.63;;;21.50;;
34928;SDS011;21133;48.048;7.724;2023-03-04T14:34:45;33.60;;;19.43;;
34928;SDS011;21133;48.048;7.724;2023-03-04T14:37:24;34.23;;;20.00;;
34928;SDS011;21133;48.048;7.724;2023-03-04T14:39:52;37.53;;;21.73;;
34928;SDS011;21133;48.048;7.724;2023-03-04T14:42:19;35.07;;;20.87;;
34928;SDS011;21133;48.048;7.724;2023-03-04T14:44:47;38.00;;;22.47;;
34928;SDS011;21133;48.048;7.724;2023-03-04T14:47:20;37.30;;;20.37;;
34928;SDS011;21133;48.048;7.724;2023-03-04T14:49:48;40.80;;;22.97;;
34928;SDS011;21133;48.048;7.724;2023-03-04T14:57:45;45.23;;;22.40;;
34928;SDS011;21133;48.048;7.724;2023-03-04T15:05:42;43.90;;;22.47;;
34928;SDS011;21133;48.048;7.724;2023-03-04T15:08:29;39.97;;;25.27;;
34928;SDS011;21133;48.048;7.724;2023-03-04T15:10:58;37.63;;;23.33;;
34928;SDS011;21133;48.048;7.724;2023-03-04T15:13:37;36.97;;;21.20;;
34928;SDS011;21133;48.048;7.724;2023-03-04T15:16:04;33.50;;;21.73;;
34928;SDS011;21133;48.048;7.724;2023-03-04T15:18:30;38.30;;;20.93;;
34928;SDS011;21133;48.048;7.724;2023-03-04T15:20:57;37.13;;;20.90;;
34928;SDS011;21133;48.048;7.724;2023-03-04T15:23:23;34.50;;;19.90;;
34928;SDS011;21133;48.048;7.724;2023-03-04T15:25:50;45.60;;;26.40;;
34928;SDS011;21133;48.048;7.724;2023-03-04T15:28:19;37.67;;;22.00;;
34928;SDS011;21133;48.048;7.724;2023-03-04T15:30:45;38.77;;;19.80;;
34928;SDS011;21133;48.048;7.724;2023-03-04T15:33:11;36.10;;;21.70;;
34928;SDS011;21133;48.048;7.724;2023-03-04T15:35:37;39.33;;;22.93;;
34928;SDS011;21133;48.048;7.724;2023-03-04T15:38:05;38.10;;;22.33;;
34928;SDS011;21133;48.048;7.724;2023-03-04T15:40:33;39.60;;;24.20;;
34928;SDS011;21133;48.048;7.724;2023-03-04T15:43:02;35.57;;;22.43;;
34928;SDS011;21133;48.048;7.724;2023-03-04T15:45:33;45.27;;;23.30;;
34928;SDS011;21133;48.048;7.724;2023-03-04T15:48:01;33.80;;;20.43;;
34928;SDS011;21133;48.048;7.724;2023-03-04T15:50:37;38.30;;;22.73;;
34928;SDS011;21133;48.048;7.724;2023-03-04T15:53:06;35.00;;;20.10;;
34928;SDS011;21133;48.048;7.724;2023-03-04T15:55:32;35.77;;;22.30;;
34928;SDS011;21133;48.048;7.724;2023-03-04T15:58:00;35.63;;;21.43;;
34928;SDS011;21133;48.048;7.724;2023-03-04T16:00:27;42.33;;;22.80;;
34928;SDS011;21133;48.048;7.724;2023-03-04T16:02:54;40.20;;;24.10;;
34928;SDS011;21133;48.048;7.724;2023-03-04T16:05:21;37.10;;;22.80;;
34928;SDS011;21133;48.048;7.724;2023-03-04T16:07:48;40.43;;;22.27;;
34928;SDS011;21133;48.048;7.724;2023-03-04T16:10:22;43.40;;;22.90;;
34928;SDS011;21133;48.048;7.724;2023-03-04T16:12:49;45.33;;;25.57;;
34928;SDS011;21133;48.048;7.724;2023-03-04T16:15:17;34.60;;;21.03;;
34928;SDS011;21133;48.048;7.724;2023-03-04T16:17:43;43.63;;;23.93;;